Portada
METAR-TAF:

METAR-TAF

Aeroports :

París, França

latitud: 48-58N, longitud: 002-27E, altitud: 66 m

Observació

L'informe es va fer fa 38 minuts, a les 22:00 UTC
Vent 5 kt del Nord-Est
Temperatura 21°C
Humitat 64%
Pressió 1017 hPa
Visibilitat 10 km o més
sense núvols per sota de 1500 mi sense presència de cumulonimbus.

METAR: LFPB 242200Z AUTO 04005KT CAVOK 21/14 Q1017 NOSIG

Hora: 00:38 (22:38 UTC)

Pronòstic

L'informe es va fer fa 5 hores i 38 minuts, a les 17:00 UTC
Pronòstic vàlid del 24 a les 18 UTC al 25 a les 18 UTC
Vent 5 kt del Est
Visibilitat 10 km o més
sense núvols per sota de 1500 mi sense presència de cumulonimbus.

TAF: LFPB 241700Z 2418/2518 10005KT CAVOK

Observacions i pronòstics meteorològics de més de 4000 aeroports (METAR i TAF).

Les estacions disponibles són els punts grocs i vermells al mapa.

Posi el ratolí al punt desitjat per veure el nom de l'estació.

Feu clic per veure les observacions i els pronòstics meteorològics.

Per canviar el mapa: feu clic els botons verds amb una creu de color negre per apropar; al botó verd amb un guió per allunyar la imatge; o en les fletxes verdes per a mapes adjacents.


METAR-TAF: